createdAt,value
2022-08-26T00:01:44.042Z,27.30
2022-08-26T00:04:12.019Z,27.30
2022-08-26T00:06:42.620Z,27.20
2022-08-26T00:09:16.216Z,27.20
2022-08-26T00:11:44.742Z,27.10
2022-08-26T00:14:13.665Z,27.10
2022-08-26T00:16:47.241Z,27.10
2022-08-26T00:19:17.752Z,27.00
2022-08-26T00:21:46.335Z,27.00
2022-08-26T00:24:16.641Z,27.00
2022-08-26T00:26:43.958Z,26.90
2022-08-26T00:29:12.134Z,26.90
2022-08-26T00:31:40.023Z,26.90
2022-08-26T00:34:09.354Z,26.80
2022-08-26T00:36:36.789Z,26.90
2022-08-26T00:39:04.630Z,26.80
2022-08-26T00:41:34.374Z,26.80
2022-08-26T00:44:01.046Z,26.80
2022-08-26T00:46:33.417Z,26.80
2022-08-26T00:49:11.629Z,26.70
2022-08-26T00:51:53.290Z,26.70
2022-08-26T00:54:24.086Z,26.70
2022-08-26T00:57:08.718Z,26.60
2022-08-26T00:59:48.811Z,26.60
2022-08-26T01:02:21.257Z,26.60
2022-08-26T01:04:55.669Z,26.50
2022-08-26T01:07:25.546Z,26.50
2022-08-26T01:09:52.413Z,26.50
2022-08-26T01:12:22.239Z,26.50
2022-08-26T01:14:49.545Z,26.50
2022-08-26T01:17:16.605Z,26.40
2022-08-26T01:19:46.783Z,26.40
2022-08-26T01:22:28.717Z,26.30
2022-08-26T01:24:58.499Z,26.30
2022-08-26T01:27:27.224Z,26.30
2022-08-26T01:30:00.888Z,26.20
2022-08-26T01:32:31.226Z,26.20
2022-08-26T01:34:59.010Z,26.10
2022-08-26T01:37:29.906Z,26.10
2022-08-26T01:39:57.737Z,26.10
2022-08-26T01:42:27.315Z,26.10
2022-08-26T01:45:12.155Z,26.00
2022-08-26T01:47:38.994Z,25.90
2022-08-26T01:50:15.754Z,26.00
2022-08-26T01:52:55.918Z,25.90
2022-08-26T01:55:32.263Z,25.90
2022-08-26T01:58:04.552Z,25.90
2022-08-26T02:00:34.214Z,25.90
2022-08-26T02:03:17.817Z,25.80
2022-08-26T02:06:05.506Z,25.80
2022-08-26T02:08:43.343Z,25.80
2022-08-26T02:11:10.950Z,25.80
2022-08-26T02:13:44.973Z,25.80
2022-08-26T02:16:13.028Z,25.70
2022-08-26T02:18:42.061Z,25.70
2022-08-26T02:21:11.790Z,25.80
2022-08-26T02:23:39.692Z,25.70
2022-08-26T02:26:21.573Z,25.70
2022-08-26T02:29:03.821Z,25.70
2022-08-26T02:31:31.276Z,25.70
2022-08-26T02:34:13.951Z,25.70
2022-08-26T02:36:42.319Z,25.70
2022-08-26T02:39:09.263Z,25.60
2022-08-26T02:41:36.278Z,25.60
2022-08-26T02:44:12.191Z,25.50
2022-08-26T02:46:39.337Z,25.50
2022-08-26T02:49:06.879Z,25.50
2022-08-26T02:51:33.857Z,25.50
2022-08-26T02:54:00.578Z,25.50
2022-08-26T02:56:29.235Z,25.40
2022-08-26T02:58:56.403Z,25.40
2022-08-26T03:01:29.927Z,25.40
2022-08-26T03:03:57.526Z,25.40
2022-08-26T03:06:24.984Z,25.30
2022-08-26T03:08:52.563Z,25.30
2022-08-26T03:11:19.943Z,25.30
2022-08-26T03:13:46.644Z,25.30
2022-08-26T03:16:14.369Z,25.20
2022-08-26T03:18:41.745Z,25.20
2022-08-26T03:21:11.758Z,25.20
2022-08-26T03:23:39.645Z,25.10
2022-08-26T03:26:07.053Z,25.10
2022-08-26T03:28:58.017Z,25.10
2022-08-26T03:31:25.250Z,25.10
2022-08-26T03:33:52.851Z,25.00
2022-08-26T03:36:22.171Z,25.00
2022-08-26T03:38:49.094Z,25.00
2022-08-26T03:41:17.509Z,25.00
2022-08-26T03:43:44.854Z,25.00
2022-08-26T03:46:12.315Z,24.90
2022-08-26T03:48:39.609Z,24.90
2022-08-26T03:51:14.141Z,24.90
2022-08-26T03:53:46.197Z,24.90
2022-08-26T03:56:12.892Z,24.80
2022-08-26T03:58:39.566Z,24.80
2022-08-26T04:01:09.483Z,24.80
2022-08-26T04:03:54.939Z,24.80
2022-08-26T04:06:21.662Z,24.70
2022-08-26T04:08:48.399Z,24.70
2022-08-26T04:11:19.828Z,24.70
2022-08-26T04:13:47.862Z,24.70
2022-08-26T04:16:18.052Z,24.60
2022-08-26T04:18:46.517Z,24.60
2022-08-26T04:21:15.239Z,24.60
2022-08-26T04:23:47.784Z,24.60
2022-08-26T04:26:16.007Z,24.50
2022-08-26T04:28:42.917Z,24.50
2022-08-26T04:31:14.757Z,24.50
2022-08-26T04:33:43.776Z,24.50
2022-08-26T04:36:10.778Z,24.50
2022-08-26T04:38:37.691Z,24.50
2022-08-26T04:41:07.019Z,24.50
2022-08-26T04:43:42.571Z,24.40
2022-08-26T04:46:10.097Z,24.40
2022-08-26T04:48:40.813Z,24.40
2022-08-26T04:51:07.668Z,24.40
2022-08-26T04:53:34.743Z,24.40
2022-08-26T04:56:01.509Z,24.30
2022-08-26T04:58:31.083Z,24.30
2022-08-26T05:00:58.354Z,24.30
2022-08-26T05:03:27.020Z,24.30
2022-08-26T05:05:54.186Z,24.30
2022-08-26T05:08:22.979Z,24.30
2022-08-26T05:10:55.842Z,24.30
2022-08-26T05:13:25.082Z,24.30
2022-08-26T05:15:52.398Z,24.30
2022-08-26T05:18:22.953Z,24.30
2022-08-26T05:20:53.924Z,24.20
2022-08-26T05:23:22.796Z,24.30
2022-08-26T05:25:58.984Z,24.30
2022-08-26T05:28:29.853Z,24.30
2022-08-26T05:30:57.199Z,24.30
2022-08-26T05:33:24.152Z,24.30
2022-08-26T05:35:50.991Z,24.30
2022-08-26T05:38:20.838Z,24.30
2022-08-26T05:40:50.470Z,24.40
2022-08-26T05:43:21.324Z,24.40
2022-08-26T05:45:50.450Z,24.40
2022-08-26T05:48:24.431Z,24.40
2022-08-26T05:50:53.130Z,24.40
2022-08-26T05:53:22.203Z,24.50
2022-08-26T05:55:52.803Z,24.50
2022-08-26T05:58:21.364Z,24.50
2022-08-26T06:01:04.244Z,24.50
2022-08-26T06:03:36.973Z,24.50
2022-08-26T06:06:06.289Z,24.60
2022-08-26T06:08:34.592Z,24.70
2022-08-26T06:11:04.379Z,24.60
2022-08-26T06:13:33.458Z,24.60
2022-08-26T06:16:05.602Z,24.60
2022-08-26T06:18:36.236Z,24.70
2022-08-26T06:21:12.647Z,24.70
2022-08-26T06:23:58.167Z,24.70
2022-08-26T06:26:25.996Z,24.70
2022-08-26T06:28:53.052Z,24.80
2022-08-26T06:31:19.784Z,24.80
2022-08-26T06:33:46.836Z,24.80
2022-08-26T06:36:19.232Z,24.90
2022-08-26T06:38:50.719Z,24.90
2022-08-26T06:41:20.865Z,24.90
2022-08-26T06:43:47.740Z,24.90
2022-08-26T06:46:20.001Z,24.90
2022-08-26T06:51:43.452Z,25.00
2022-08-26T06:54:10.933Z,25.00
2022-08-26T06:56:43.169Z,25.00
2022-08-26T06:59:11.555Z,25.10
2022-08-26T07:01:44.791Z,25.10
2022-08-26T07:04:14.583Z,25.20
2022-08-26T07:06:50.109Z,25.20
2022-08-26T07:09:24.954Z,25.20
2022-08-26T07:11:52.804Z,25.30
2022-08-26T07:14:21.469Z,25.20
2022-08-26T07:16:49.601Z,25.30
2022-08-26T07:19:29.861Z,25.30
2022-08-26T07:21:57.635Z,25.40
2022-08-26T07:24:24.300Z,25.40
2022-08-26T07:26:59.144Z,25.40
2022-08-26T07:29:26.058Z,25.50
2022-08-26T07:31:53.545Z,25.50
2022-08-26T07:34:23.967Z,25.50
2022-08-26T07:36:51.509Z,25.60
2022-08-26T07:39:18.962Z,25.60
2022-08-26T07:41:47.210Z,25.70
2022-08-26T07:44:14.968Z,25.70
2022-08-26T07:46:42.123Z,25.70
2022-08-26T07:49:12.044Z,25.80
2022-08-26T07:51:39.646Z,25.80
2022-08-26T07:54:07.187Z,25.90
2022-08-26T07:56:34.118Z,25.90
2022-08-26T07:59:01.233Z,25.90
2022-08-26T08:01:31.359Z,26.00
2022-08-26T08:04:00.325Z,26.00
2022-08-26T08:06:29.146Z,26.00
2022-08-26T08:08:56.240Z,26.00
2022-08-26T08:11:24.566Z,26.10
2022-08-26T08:13:56.543Z,26.10
2022-08-26T08:16:32.116Z,26.10
2022-08-26T08:18:59.489Z,26.10
2022-08-26T08:21:28.152Z,26.10
2022-08-26T08:23:56.943Z,26.10
2022-08-26T08:26:25.049Z,26.10
2022-08-26T08:28:55.938Z,26.20
2022-08-26T08:31:52.441Z,26.20
2022-08-26T08:34:12.839Z,26.20
2022-08-26T08:36:39.731Z,26.20
2022-08-26T08:39:07.022Z,26.20
2022-08-26T08:41:41.461Z,26.20
2022-08-26T08:44:14.370Z,26.20
2022-08-26T08:46:44.250Z,26.20
2022-08-26T08:49:13.620Z,26.20
2022-08-26T08:51:59.396Z,26.20
2022-08-26T08:54:26.796Z,26.30
2022-08-26T08:56:59.716Z,26.30
2022-08-26T08:59:32.592Z,26.40
2022-08-26T09:02:31.956Z,26.30
2022-08-26T09:05:28.422Z,26.40
2022-08-26T09:08:03.994Z,26.40
2022-08-26T09:10:54.224Z,26.40
2022-08-26T09:13:25.287Z,26.50
2022-08-26T09:16:10.073Z,26.50
2022-08-26T09:18:59.260Z,26.50
2022-08-26T09:21:26.775Z,26.60
2022-08-26T09:23:57.000Z,26.60
2022-08-26T09:26:30.657Z,26.60
2022-08-26T09:29:05.366Z,26.60
2022-08-26T09:31:37.650Z,26.70
2022-08-26T09:34:24.415Z,26.70
2022-08-26T09:36:59.601Z,26.80
2022-08-26T09:39:29.090Z,26.80
2022-08-26T09:42:04.264Z,26.80
2022-08-26T09:44:32.989Z,26.90
2022-08-26T09:47:06.368Z,26.90
2022-08-26T09:49:38.752Z,26.90
2022-08-26T09:52:10.233Z,26.90
2022-08-26T09:54:38.563Z,27.00
2022-08-26T09:57:20.984Z,27.00
2022-08-26T09:59:49.413Z,27.00
2022-08-26T10:02:22.270Z,27.00
2022-08-26T10:04:55.365Z,27.00
2022-08-26T10:07:44.625Z,27.10
2022-08-26T10:10:16.832Z,27.10
2022-08-26T10:13:08.827Z,27.10
2022-08-26T10:15:51.208Z,27.20
2022-08-26T10:18:25.002Z,27.20
2022-08-26T10:21:08.805Z,27.30
2022-08-26T10:23:57.696Z,27.30
2022-08-26T10:26:32.680Z,27.40
2022-08-26T10:29:06.247Z,27.40
2022-08-26T10:31:48.601Z,27.40
2022-08-26T10:34:18.827Z,27.50
2022-08-26T10:37:15.206Z,27.50
2022-08-26T10:39:58.906Z,27.60
2022-08-26T10:42:37.750Z,27.50
2022-08-26T10:45:25.578Z,27.50
2022-08-26T10:48:06.798Z,27.60
2022-08-26T10:50:41.724Z,27.60
2022-08-26T10:53:33.977Z,27.60
2022-08-26T10:56:15.656Z,27.70
2022-08-26T10:59:23.134Z,27.70
2022-08-26T11:02:07.044Z,27.80
2022-08-26T11:05:05.709Z,27.90
2022-08-26T11:07:40.974Z,27.90
2022-08-26T11:10:42.907Z,27.90
2022-08-26T11:13:10.337Z,28.00
2022-08-26T11:15:40.720Z,28.00
2022-08-26T11:18:37.316Z,28.00
2022-08-26T11:21:44.704Z,28.10
2022-08-26T11:25:02.852Z,28.10
2022-08-26T11:27:35.458Z,28.20
2022-08-26T11:30:06.867Z,28.30
2022-08-26T11:32:34.303Z,28.30
2022-08-26T11:35:07.879Z,28.40
2022-08-26T11:37:42.519Z,28.40
2022-08-26T11:40:19.163Z,28.50
2022-08-26T11:42:54.821Z,28.60
2022-08-26T11:45:26.981Z,28.70
2022-08-26T11:47:54.728Z,28.70
2022-08-26T11:50:27.491Z,28.80
2022-08-26T11:53:04.095Z,28.80
2022-08-26T11:55:35.865Z,28.90
2022-08-26T11:58:06.371Z,29.00
2022-08-26T12:00:39.806Z,29.10
2022-08-26T12:03:20.931Z,29.10
2022-08-26T12:05:51.967Z,29.20
2022-08-26T12:08:23.130Z,29.30
2022-08-26T12:11:03.175Z,29.30
2022-08-26T12:13:30.102Z,29.40
2022-08-26T12:16:00.080Z,29.50
2022-08-26T12:18:35.314Z,29.50
2022-08-26T12:21:19.036Z,29.60
2022-08-26T12:23:49.981Z,29.70
2022-08-26T12:26:28.443Z,29.80
2022-08-26T12:29:01.154Z,29.80
2022-08-26T12:31:35.050Z,29.90
2022-08-26T12:34:04.802Z,29.90
2022-08-26T12:36:38.537Z,30.00
2022-08-26T12:39:07.827Z,30.00
2022-08-26T12:41:49.498Z,30.00
2022-08-26T12:44:36.708Z,30.10
2022-08-26T12:47:05.840Z,30.10
2022-08-26T12:49:32.567Z,30.20
2022-08-26T12:51:59.263Z,30.20
2022-08-26T12:54:46.343Z,30.30
2022-08-26T12:57:13.584Z,30.30
2022-08-26T12:59:40.326Z,30.30
2022-08-26T13:02:07.102Z,30.40
2022-08-26T13:04:37.056Z,30.40
2022-08-26T13:07:21.908Z,30.40
2022-08-26T13:09:50.587Z,30.40
2022-08-26T13:12:43.557Z,30.40
2022-08-26T13:15:10.242Z,30.40
2022-08-26T13:17:37.613Z,30.40
2022-08-26T13:20:04.796Z,30.40
2022-08-26T13:22:32.036Z,30.30
2022-08-26T13:24:58.946Z,30.30
2022-08-26T13:27:27.072Z,30.30
2022-08-26T13:29:54.764Z,30.30
2022-08-26T13:32:22.420Z,30.30
2022-08-26T13:34:54.651Z,30.20
2022-08-26T13:37:22.250Z,30.20
2022-08-26T13:40:00.756Z,30.20
2022-08-26T13:42:27.606Z,30.10
2022-08-26T13:44:57.828Z,30.10
2022-08-26T13:47:25.767Z,30.10
2022-08-26T13:49:54.564Z,30.10
2022-08-26T13:52:30.661Z,30.10
2022-08-26T13:54:59.976Z,30.00
2022-08-26T13:57:28.261Z,30.00
2022-08-26T13:59:56.404Z,29.90
2022-08-26T14:02:23.197Z,29.90
2022-08-26T14:04:50.035Z,29.90
2022-08-26T14:07:16.746Z,29.80
2022-08-26T14:09:43.435Z,29.80
2022-08-26T14:12:10.131Z,29.80
2022-08-26T14:14:36.810Z,29.70
2022-08-26T14:17:03.626Z,29.70
2022-08-26T14:19:31.355Z,29.80
2022-08-26T14:22:00.500Z,29.60
2022-08-26T14:24:27.490Z,29.60
2022-08-26T14:26:54.190Z,29.60
2022-08-26T14:29:20.891Z,29.50
2022-08-26T14:31:48.248Z,29.50
2022-08-26T14:34:15.321Z,29.50
2022-08-26T14:36:42.323Z,29.40
2022-08-26T14:39:12.013Z,29.40
2022-08-26T14:41:45.081Z,29.40
2022-08-26T14:44:14.730Z,29.30
2022-08-26T14:46:52.743Z,29.30
2022-08-26T14:49:20.933Z,29.30
2022-08-26T14:51:48.248Z,29.30
2022-08-26T14:54:16.368Z,29.30
2022-08-26T14:56:48.643Z,29.20
2022-08-26T14:59:17.826Z,29.20
2022-08-26T15:01:45.353Z,29.20
2022-08-26T15:04:12.499Z,29.20
2022-08-26T15:06:39.288Z,29.20
2022-08-26T15:09:06.081Z,29.10
2022-08-26T15:11:32.956Z,29.10
2022-08-26T15:13:59.897Z,29.10
2022-08-26T15:16:28.171Z,29.20
2022-08-26T15:18:55.602Z,29.10
2022-08-26T15:21:22.612Z,29.10
2022-08-26T15:23:50.200Z,29.10
2022-08-26T15:26:17.521Z,29.10
2022-08-26T15:28:45.150Z,29.10
2022-08-26T15:31:12.150Z,29.10
2022-08-26T15:33:39.516Z,29.00
2022-08-26T15:36:07.465Z,29.00
2022-08-26T15:38:40.066Z,29.00
2022-08-26T15:41:08.438Z,28.90
2022-08-26T15:43:36.730Z,28.80
2022-08-26T15:46:04.088Z,28.80
2022-08-26T15:48:30.873Z,28.70
2022-08-26T15:51:00.159Z,28.60
2022-08-26T15:53:29.468Z,28.50
2022-08-26T15:55:58.122Z,28.50
2022-08-26T15:58:27.350Z,28.40
2022-08-26T16:00:55.321Z,28.30
2022-08-26T16:03:22.586Z,28.30
2022-08-26T16:05:49.636Z,28.20
2022-08-26T16:08:16.872Z,28.20
2022-08-26T16:10:50.318Z,28.10
2022-08-26T16:13:19.813Z,28.10
2022-08-26T16:15:47.588Z,28.00
2022-08-26T16:18:15.761Z,28.00
2022-08-26T16:21:08.818Z,28.00
2022-08-26T16:23:37.416Z,28.00
2022-08-26T16:26:17.506Z,28.00
2022-08-26T16:28:44.639Z,27.90
2022-08-26T16:31:12.408Z,27.90
2022-08-26T16:33:39.512Z,27.90
2022-08-26T16:36:07.584Z,27.90
2022-08-26T16:38:35.405Z,27.90
2022-08-26T16:41:02.382Z,27.90
2022-08-26T16:43:29.180Z,27.90
2022-08-26T16:45:56.422Z,27.80
2022-08-26T16:48:23.648Z,27.80
2022-08-26T16:50:51.269Z,27.70
2022-08-26T16:53:18.658Z,27.70
2022-08-26T16:55:47.364Z,27.70
2022-08-26T16:58:14.579Z,27.60
2022-08-26T17:00:41.320Z,27.60
2022-08-26T17:03:08.313Z,27.50
2022-08-26T17:05:36.186Z,27.50
2022-08-26T17:08:03.835Z,27.50
2022-08-26T17:10:30.814Z,27.40
2022-08-26T17:12:57.683Z,27.30
2022-08-26T17:15:25.164Z,27.30
2022-08-26T17:17:53.337Z,27.20
2022-08-26T17:20:22.250Z,27.30
2022-08-26T17:22:50.682Z,27.20
2022-08-26T17:25:21.764Z,27.10
2022-08-26T17:27:48.565Z,27.10
2022-08-26T17:30:16.483Z,27.10
2022-08-26T17:32:43.256Z,27.10
2022-08-26T17:35:12.963Z,27.00
2022-08-26T17:37:40.616Z,27.00
2022-08-26T17:40:10.727Z,27.00
2022-08-26T17:42:38.940Z,26.90
2022-08-26T17:45:07.223Z,26.90
2022-08-26T17:47:34.569Z,26.90
2022-08-26T17:50:01.554Z,26.80
2022-08-26T17:52:29.222Z,26.80
2022-08-26T17:54:57.054Z,26.80
2022-08-26T17:57:24.447Z,26.80
2022-08-26T17:59:51.489Z,26.80
2022-08-26T18:02:20.909Z,26.70
2022-08-26T18:04:47.877Z,26.70
2022-08-26T18:07:15.043Z,26.60
2022-08-26T18:09:41.741Z,26.60
2022-08-26T18:12:08.564Z,26.60
2022-08-26T18:14:35.383Z,26.60
2022-08-26T18:17:02.066Z,26.50
2022-08-26T18:19:29.657Z,26.50
2022-08-26T18:21:56.719Z,26.40
2022-08-26T18:24:23.433Z,26.40
2022-08-26T18:26:50.952Z,26.30
2022-08-26T18:29:19.325Z,26.30
2022-08-26T18:31:46.620Z,26.20
2022-08-26T18:34:15.324Z,26.20
2022-08-26T18:36:42.784Z,26.10
2022-08-26T18:39:10.493Z,26.10
2022-08-26T18:41:46.878Z,26.00
2022-08-26T18:44:16.050Z,26.00
2022-08-26T18:46:44.229Z,25.90
2022-08-26T18:49:15.586Z,25.90
2022-08-26T18:51:43.443Z,25.90
2022-08-26T18:54:11.522Z,25.80
2022-08-26T18:56:39.749Z,25.80
2022-08-26T18:59:08.120Z,25.90
2022-08-26T19:01:36.553Z,25.70
2022-08-26T19:04:05.603Z,25.70
2022-08-26T19:06:35.363Z,25.70
2022-08-26T19:09:04.348Z,25.60
2022-08-26T19:11:32.204Z,25.60
2022-08-26T19:14:09.011Z,25.60
2022-08-26T19:16:37.284Z,25.50
2022-08-26T19:19:04.498Z,25.50
2022-08-26T19:21:33.107Z,25.50
2022-08-26T19:24:02.705Z,25.50
2022-08-26T19:26:30.941Z,25.40
2022-08-26T19:28:58.443Z,25.40
2022-08-26T19:31:25.960Z,25.40
2022-08-26T19:33:52.842Z,25.30
2022-08-26T19:36:23.615Z,25.30
2022-08-26T19:38:50.402Z,25.20
2022-08-26T19:41:37.597Z,25.20
2022-08-26T19:44:12.772Z,25.20
2022-08-26T19:46:39.806Z,25.20
2022-08-26T19:49:06.693Z,25.10
2022-08-26T19:51:35.636Z,25.10
2022-08-26T19:54:02.455Z,25.00
2022-08-26T19:56:29.500Z,25.00
2022-08-26T19:58:56.582Z,25.00
2022-08-26T20:01:23.895Z,25.00
2022-08-26T20:03:50.710Z,24.90
2022-08-26T20:06:18.480Z,24.90
2022-08-26T20:08:45.905Z,24.90
2022-08-26T20:11:17.195Z,24.90
2022-08-26T20:13:47.285Z,24.90
2022-08-26T20:16:15.269Z,24.80
2022-08-26T20:19:02.114Z,24.70
2022-08-26T20:21:32.990Z,24.70
2022-08-26T20:24:12.252Z,24.70
2022-08-26T20:26:41.252Z,24.70
2022-08-26T20:29:09.363Z,24.60
2022-08-26T20:31:36.689Z,24.60
2022-08-26T20:34:04.561Z,24.60
2022-08-26T20:36:32.126Z,24.60
2022-08-26T20:38:58.895Z,24.50
2022-08-26T20:41:26.377Z,24.50
2022-08-26T20:43:53.901Z,24.40
2022-08-26T20:46:24.669Z,24.50
2022-08-26T20:48:53.216Z,24.40
2022-08-26T20:51:22.782Z,24.30
2022-08-26T20:53:50.277Z,24.30
2022-08-26T20:56:22.107Z,24.30
2022-08-26T20:58:49.292Z,24.20
2022-08-26T21:01:30.585Z,24.20
2022-08-26T21:03:57.602Z,24.20
2022-08-26T21:06:24.538Z,24.20
2022-08-26T21:08:51.379Z,24.10
2022-08-26T21:11:20.059Z,24.10
2022-08-26T21:16:36.065Z,24.00
2022-08-26T21:19:05.710Z,24.00
2022-08-26T21:21:32.574Z,23.90
2022-08-26T21:23:59.575Z,24.00
2022-08-26T21:26:26.568Z,23.90
2022-08-26T21:28:54.024Z,23.80
2022-08-26T21:31:23.539Z,23.80
2022-08-26T21:33:50.914Z,23.80
2022-08-26T21:36:18.785Z,23.70
2022-08-26T21:38:45.772Z,23.70
2022-08-26T21:41:20.687Z,23.70
2022-08-26T21:43:48.827Z,23.60
2022-08-26T21:46:18.858Z,23.60
2022-08-26T21:48:59.575Z,23.60
2022-08-26T21:51:32.348Z,23.60
2022-08-26T21:54:00.599Z,23.50
2022-08-26T21:56:31.468Z,23.60
2022-08-26T21:58:59.514Z,23.50
2022-08-26T22:01:31.651Z,23.50
2022-08-26T22:03:58.690Z,23.40
2022-08-26T22:06:27.467Z,23.40
2022-08-26T22:08:54.647Z,23.40
2022-08-26T22:11:21.906Z,23.40
2022-08-26T22:13:49.205Z,23.30
2022-08-26T22:16:15.996Z,23.30
2022-08-26T22:18:45.714Z,23.30
2022-08-26T22:21:17.095Z,23.30
2022-08-26T22:23:44.518Z,23.30
2022-08-26T22:26:13.437Z,23.30
2022-08-26T22:28:40.901Z,23.20
2022-08-26T22:31:11.109Z,23.20
2022-08-26T22:33:38.877Z,23.20
2022-08-26T22:36:06.373Z,23.20
2022-08-26T22:38:33.054Z,23.20
2022-08-26T22:41:00.596Z,23.10
2022-08-26T22:43:28.961Z,23.10
2022-08-26T22:45:56.475Z,23.10
2022-08-26T22:48:25.470Z,23.10
2022-08-26T22:50:58.258Z,23.00
2022-08-26T22:53:27.017Z,23.00
2022-08-26T22:55:54.321Z,23.00
2022-08-26T22:58:21.285Z,23.00
2022-08-26T23:00:57.785Z,23.00
2022-08-26T23:03:27.159Z,22.90
2022-08-26T23:05:55.491Z,22.90
2022-08-26T23:08:23.133Z,22.90
2022-08-26T23:10:50.645Z,22.90
2022-08-26T23:13:18.242Z,22.90
2022-08-26T23:15:45.923Z,22.90
2022-08-26T23:18:14.486Z,22.90
2022-08-26T23:20:42.278Z,22.90
2022-08-26T23:23:09.422Z,22.80
2022-08-26T23:25:36.075Z,22.80
2022-08-26T23:28:03.093Z,22.80
2022-08-26T23:30:32.177Z,22.80
2022-08-26T23:32:58.993Z,22.80
2022-08-26T23:35:26.589Z,22.80
2022-08-26T23:37:53.598Z,22.70
2022-08-26T23:40:25.154Z,22.70
2022-08-26T23:42:53.657Z,22.80
2022-08-26T23:45:21.281Z,22.70
2022-08-26T23:47:50.457Z,22.70
2022-08-26T23:50:19.761Z,22.70
2022-08-26T23:53:05.603Z,22.70
2022-08-26T23:55:39.369Z,22.60
2022-08-26T23:58:06.456Z,22.80
